<<    Dezember 2010    >>
Datum    Temp.       Tempmin      Tempmax    Taup.       Taup.min      Taup.max    Feuchte    Feuchtemin    Feuchtemax    Druck    Druckmin    Druckmax    Regen    Wind    Benmax  
  01.12.2010  -4,1    -6,0    07:49    -1,5    00:00  -11,2    -12,8    10:55    -7,8    00:00  57,6    54    10:55    62    00:00  1006,5    1003    13:25    1011    00:00  0,0  4,0  16,9  
  02.12.2010  -5,4    -7,8    18:13    -2,8    12:36  -10,8    -12,5    00:51    -8,5    22:27  66,1    57    00:51    79    20:24  1009,5    1007    00:40    1011    10:55  0,0  1,4  10,4  
  03.12.2010  -4,3    -6,5    23:36    -1,5    14:01  -7,7    -8,7    00:02    -6,4    13:30  77,4    68    14:02    86    23:59  1012,5    1010    00:00    1016    23:59  0,0  0,4  6,1  
  04.12.2010  -2,7    -6,8    03:53    1,8    23:53  -7,1    -9,1    07:51    -3,0    21:56  72,8    55    13:10    87    00:25  1015,9    1010    23:39    1020    08:40  0,0  5,2  20,5  
  05.12.2010  1,6    0,8    17:59    2,6    03:16  0,0    -3,2    00:08    1,0    07:58  89,5    70    00:00    98    23:59  1005,4    1003    12:39    1011    00:00  14,1  2,1  14,0  
  06.12.2010  0,1    -2,6    22:46    2,3    13:55  -1,1    -3,5    22:11    1,4    11:41  92,5    78    14:09    98    00:00  1002,7    1001    13:39    1005    05:09  1,0  0,2  6,8  
  07.12.2010  -1,4    -4,6    06:59    0,7    14:03  -2,5    -5,3    06:59    -0,5    23:59  92,4    86    16:16    98    09:46  1004,2    1003    00:00    1006    09:24  0,0  0,2  6,1  
  08.12.2010  0,1    -1,1    23:43    1,0    11:35  -0,5    -1,9    23:59    0,5    11:24  95,9    91    13:26    98    05:32  1007,0    1004    07:39    1015    23:54  0,0  1,9  11,9  
  09.12.2010  1,4    -1,3    00:30    2,9    19:34  -0,1    -2,2    03:32    1,3    12:21  89,9    77    14:08    97    07:28  1021,7    1015    00:00    1027    21:08  4,8  5,8  24,8  
  10.12.2010  3,4    1,6    07:01    4,8    13:03  2,8    -0,2    00:20    4,4    12:58  96,2    81    00:02    98    03:02  1027,9    1023    23:23    1031    10:23  2,7  3,1  23,4  
  11.12.2010  6,0    4,6    00:00    7,0    12:34  5,0    3,5    23:50    6,3    11:24  93,6    81    23:50    98    00:05  1020,7    1016    23:38    1024    00:00  1,2  7,0  27,4  
  12.12.2010  3,9    -0,7    23:43    6,5    00:00  -0,2    -9,2    23:33    4,0    02:21  75,1    52    22:10    88    02:21  1017,8    1015    00:38    1023    23:59  0,9  6,7  28,4  
  13.12.2010  -3,0    -5,9    08:48    -0,6    00:00  -7,6    -10,1    03:29    -4,5    23:32  70,7    53    00:00    86    22:47  1024,3    1021    21:37    1027    09:38  0,0  1,2  14,0  
  14.12.2010  -2,3    -4,0    09:52    -1,7    13:16  -5,3    -7,6    21:04    -3,2    05:19  80,5    67    20:45    92    05:18  1028,5    1022    00:00    1033    20:52  0,0  2,7  11,9  
  15.12.2010  -2,6    -7,6    23:54    1,4    14:00  -5,5    -9,2    23:54    0,3    11:44  80,8    64    14:26    96    11:44  1028,2    1023    23:22    1033    02:37  0,0  2,5  16,2  
  16.12.2010  -2,7    -8,9    03:09    0,7    13:14  -3,8    -10,5    03:09    0,4    16:37  91,9    82    11:32    98    15:56  1008,8    995    18:37    1024    00:00  0,0  2,6  14,0  
  17.12.2010  -2,0    -7,4    23:13    0,8    12:50  -3,4    -8,8    23:13    -0,2    00:00  90,7    81    16:01    98    00:00  997,4    996    00:07    999    23:59  0,0  0,5  5,4  
  18.12.2010  -3,9    -6,7    00:00    -0,8    13:27  -5,8    -8,2    17:46    -2,7    13:20  87,0    74    15:46    93    04:11  1000,1    998    23:59    1002    09:51  0,0  0,4  6,5  
  19.12.2010  -0,7    -2,8    06:06    0,8    22:00  -1,5    -4,0    00:00    0,5    22:00  94,4    82    13:58    98    23:59  994,8    987    20:51    1000    08:06  0,0  0,4  7,6  
  20.12.2010  -3,1    -7,3    20:10    0,1    00:00  -4,3    -8,4    20:10    -0,2    00:00  91,7    84    14:37    98    00:00  1004,3    990    00:00    1008    16:36  0,0  0,7  14,0  
  21.12.2010  -0,3    -4,6    00:00    2,0    13:22  -0,6    -5,3    00:00    1,6    12:50  97,5    95    00:00    98    23:59  1005,3    1003    06:51    1008    00:00  8,5  0,0  4,3  
  22.12.2010  1,9    0,8    23:42    4,6    13:29  1,5    0,5    23:42    4,2    12:53  97,5    94    14:19    98    00:00  1003,9    1003    07:35    1005    00:00  18,1  0,4  6,8  
  23.12.2010  -0,5    -1,4    15:38    0,8    00:00  -0,8    -1,7    15:38    0,5    00:00  98,0    98    00:00    98    00:00  1002,3    1001    02:20    1004    23:35  3,7  4,1  13,0  
  24.12.2010  -1,8    -3,4    23:59    -0,5    00:00  -3,0    -5,7    21:51    -0,8    00:00  92,1    84    19:17    98    00:00  1008,9    1004    00:00    1016    23:35  0,0  5,7  20,5  
  25.12.2010  -5,4    -8,5    20:05    -3,4    00:00  -8,0    -10,3    20:05    -5,4    00:00  82,0    72    13:51    91    23:59  1023,6    1016    00:00    1029    23:50  0,0  3,5  17,6  
  26.12.2010  -1,5    -5,7    00:00    1,5    14:01  -2,4    -6,9    00:00    0,8    22:51  93,4    89    03:19    98    19:47  1025,9    1023    23:34    1029    00:00  1,1  2,6  15,5  
  27.12.2010  0,4    -0,9    23:59    2,1    13:18  -0,6    -2,5    23:01    0,9    11:23  92,8    85    13:49    98    00:00  1023,8    1022    22:49    1025    02:04  0,7  2,3  16,6  
  28.12.2010  0,1    -1,0    00:22    1,8    12:56  -2,8    -3,7    08:45    -2,3    00:00  80,9    71    13:24    90    00:00  1022,0    1020    04:19    1024    20:04  0,0  3,0  12,6  
  29.12.2010  1,1    -0,7    02:20    2,9    13:26  -1,4    -3,6    02:09    -0,3    19:25  83,8    76    13:35    89    19:25  1024,7    1023    03:34    1027    23:49  3,0  2,1  14,0  
  30.12.2010  0,3    -1,4    07:53    1,8    14:27  -1,4    -2,7    07:19    -0,5    00:33  87,9    80    12:33    93    08:36  1027,1    1026    00:04    1029    10:18  0,9  1,2  10,1  
  31.12.2010  0,3    -0,6    07:40    1,3    12:31  -0,9    -1,8    01:22    0,6    23:59  92,0    83    12:44    98    23:59  1026,7    1024    22:48    1029    09:03  0,0  0,8  7,9  
 
  Gesamt  -0,9  -8,9            7,0            -2,9  -12,8            6,3            86,6  52            98            1014,0  987            1033            60,6  2,4  28,4  
 
  Mittelwert  -0,9  -3,5            1,3            -2,9  -5,7            -0,6            86,6  76,3            93,4            1014,0  1009,9            1017,8            2,0  2,4  13,7  
  Minimum  -5,4  -8,9            -3,4            -11,2  -12,8            -8,5            57,6  52,0            62,0            994,8  987,0            999,0            0,0  0,0  4,3  
  Maximum  6,0  4,6            7,0            5,0  3,5            6,3            98,0  98,0            98,0            1028,5  1026,0            1033,0            18,1  7,0  28,4  

  Heie Tage    Tmax >=30C     0  
  Sommertage    Tmax >=25C     0  
  Warme Tage    Tmax >=20C     0  
  Kalte Tage    Tmax  <10C     31  
  Frosttage    Tmin  <0C     27  
  Eistage    Tmax  <0C     8  
  Regentage > 0 mm    13  
  Regentage > 2 mm    7  
  Regentage > 10 mm    2  
  Regentage > 20 mm    0